Fort Myers Airport, FL

3:27 PM EDT on October 01, 2014 (GMT -0400)
Charlotte County | Change Station
CLOSE
Current Station
Airport
Location: Punta Gorda,
Elevation: 26 ft
Nearby Weather Stations

Elev 26 ft 26.92 °N, 81.99 °W | Updated 34 minutes ago

Partly Cloudy
Partly Cloudy
90 °F
Feels Like 99 °F
N
12
Wind Variable Wind from West
Gusts 21 mph

Today
High -- | Low -- °F
--% Chance of Precip.
Yesterday
High -- | Low -- °F
Precip. -- in
7:19 AM 7:13 PM
Waxing Crescent, 50% visible
Pressure 29.93 in
Visibility 10.0 miles
Clouds Scattered Clouds 3300 ft
Heat Index 99 °F
Dew Point 74 °F
Humidity 59%
Rainfall 0.06 in
Snow Depth Not available.
UV 8 out of 12
Pollen 4.60 out of 12
Air Quality Not available.
Flu Activity Not available.
METAR KPGD 011853Z 27010G18KT 10SM SCT033 32/23 A2992 RMK AO2 SLP133 T03220233

More Conditions Fewer Conditions

Pressure 29.93 in
Visibility 10.0 miles
Clouds Scattered Clouds 3300 ft
Heat Index 99 °F
Dew Point 74 °F
Humidity 59%
Rainfall 0.06 in
Snow Depth Not available.
UV 8 out of 12
Pollen 4.60 out of 12
Air Quality Not available.
Flu Activity Not available.
METAR KPGD 011853Z 27010G18KT 10SM SCT033 32/23 A2992 RMK AO2 SLP133 T03220233

More Conditions Fewer Conditions

10-Day Weather Forecast

Almanac

Astronomy

Oct. 01, 2014 Rise Set
Actual Time 7:19 AM EDT 7:13 PM EDT
Civil Twilight 6:56 AM EDT 7:36 PM EDT
Nautical Twilight 6:29 AM EDT 8:03 PM EDT
Astronomical Twilight 6:02 AM EDT 8:30 PM EDT
Moon 1:55 PM EDT 12:07 AM EDT
Length of Visible Light 12h 40m
Length of Day
11h 53m
Tomorrow will be 1m 33s shorter.
Waxing Crescent, 50% of the Moon is Illuminated
Today
Waxing Crescent
Oct 1
First Quarter
Oct 8
Full
Oct 15
Last Quarter
Oct 23
New

Today's Extremes

State Highs State Lows

Community

WunderPhotos

Upload Photos

1,758,010 photos uploaded!

WunderBlogs® & News

Nearby

Snow Depth

Station Depth Elevation
No new snow has been reported.

Earthquake Activity

City Distance Mag. Time & Date
No recent earthquake activity has been reported nearby.
Minimum magnitude displayed is 2.5.

Coastal Water Temperatures

Place Temperature
Fort Myers, FL 87.1 °F
Naples, FL 89.1 °F

Nearby Weather Stations